Alexandria, New York
Current Conditions -  °F | °C
As of 2:58 AM on Monday 24 Nov 2014 (Local Time) from KGTB Reporting Station
Light Rain Light Rain  
Wind Chill:   Ceiling: 7000
Heat Index:   Visibility: 10mi
Dew Point:   Wind: 21mph
Humidity: 83%   Direction: 150°SSE
Pressure: 29.6"   Gusts: 29mph
Location:  44.3057°N, 75.9374°W
Report Text: KGTB 240758Z AUTO 15018G25KT 10SM -RA BKN070 OVC085 08/05 A2960 RMK AO2 PK WND 15031/55 RAB0734DZB0735E0736 PRESFR SLP027 P0000 T00770049
Loading
Personal Weather Stations






























Interactive Weather Map New forecast layout! Learn more

10-Day Weather Forecast

Advertisements
Track Severe Weather on mobile